createdAt,value
2022-08-26T00:03:59.088Z,11.60
2022-08-26T00:08:01.739Z,17.30
2022-08-26T00:12:05.076Z,14.37
2022-08-26T00:16:08.363Z,10.73
2022-08-26T00:20:16.978Z,10.57
2022-08-26T00:24:21.075Z,11.00
2022-08-26T00:28:23.196Z,13.30
2022-08-26T00:32:26.316Z,16.43
2022-08-26T00:36:29.697Z,10.57
2022-08-26T00:40:45.603Z,9.83
2022-08-26T00:44:47.752Z,12.90
2022-08-26T00:48:58.408Z,11.50
2022-08-26T00:53:03.635Z,12.77
2022-08-26T00:57:16.037Z,14.17
2022-08-26T01:01:19.388Z,12.07
2022-08-26T01:05:25.631Z,11.60
2022-08-26T01:09:28.424Z,15.57
2022-08-26T01:13:32.581Z,14.67
2022-08-26T01:17:38.545Z,16.17
2022-08-26T01:21:50.243Z,14.97
2022-08-26T01:25:59.600Z,13.77
2022-08-26T01:30:02.892Z,15.20
2022-08-26T01:34:20.168Z,14.97
2022-08-26T01:38:23.746Z,12.33
2022-08-26T01:42:27.551Z,14.27
2022-08-26T01:46:31.592Z,15.33
2022-08-26T01:50:36.232Z,13.30
2022-08-26T01:54:38.688Z,13.07
2022-08-26T01:58:52.757Z,12.63
2022-08-26T02:03:17.231Z,15.53
2022-08-26T02:07:21.637Z,13.70
2022-08-26T02:11:23.955Z,16.83
2022-08-26T02:15:28.338Z,17.27
2022-08-26T02:19:33.435Z,21.90
2022-08-26T02:23:35.949Z,20.07
2022-08-26T02:27:39.894Z,18.47
2022-08-26T02:31:42.540Z,17.27
2022-08-26T02:35:45.458Z,19.27
2022-08-26T02:39:49.112Z,20.53
2022-08-26T02:43:51.544Z,18.17
2022-08-26T02:47:54.686Z,20.70
2022-08-26T02:52:01.891Z,22.33
2022-08-26T02:56:07.494Z,29.17
2022-08-26T03:00:14.719Z,26.23
2022-08-26T03:04:16.731Z,27.83
2022-08-26T03:08:19.682Z,26.63
2022-08-26T03:12:21.833Z,29.67
2022-08-26T03:16:24.513Z,27.33
2022-08-26T03:20:35.543Z,30.27
2022-08-26T03:24:37.774Z,31.10
2022-08-26T03:28:59.594Z,37.70
2022-08-26T03:33:02.925Z,29.87
2022-08-26T03:37:05.281Z,31.57
2022-08-26T03:41:10.620Z,23.43
2022-08-26T03:45:15.525Z,29.13
2022-08-26T03:49:17.873Z,32.67
2022-08-26T03:53:20.546Z,29.90
2022-08-26T03:57:23.401Z,31.47
2022-08-26T04:01:25.648Z,27.30
2022-08-26T04:05:27.840Z,36.93
2022-08-26T04:09:31.081Z,34.97
2022-08-26T04:13:37.736Z,36.60
2022-08-26T04:17:40.733Z,25.67
2022-08-26T04:21:43.935Z,33.33
2022-08-26T04:25:46.136Z,25.87
2022-08-26T04:29:51.427Z,25.50
2022-08-26T04:33:57.152Z,15.70
2022-08-26T04:37:59.530Z,14.57
2022-08-26T04:42:02.100Z,15.83
2022-08-26T04:46:05.772Z,16.80
2022-08-26T04:50:08.707Z,13.13
2022-08-26T04:54:14.258Z,15.07
2022-08-26T04:58:21.110Z,12.20
2022-08-26T05:02:23.553Z,13.48
2022-08-26T05:06:28.198Z,14.45
2022-08-26T05:10:34.684Z,13.40
2022-08-26T05:14:37.012Z,11.80
2022-08-26T05:18:40.855Z,14.70
2022-08-26T05:22:45.737Z,11.98
2022-08-26T05:26:48.280Z,12.45
2022-08-26T05:30:51.391Z,12.85
2022-08-26T05:34:57.568Z,11.98
2022-08-26T05:39:02.504Z,18.55
2022-08-26T05:43:10.583Z,18.27
2022-08-26T05:47:12.809Z,18.65
2022-08-26T05:51:15.407Z,18.20
2022-08-26T05:55:19.124Z,20.15
2022-08-26T05:59:24.487Z,24.30
2022-08-26T06:03:27.292Z,17.63
2022-08-26T06:07:48.025Z,20.55
2022-08-26T06:11:51.662Z,21.85
2022-08-26T06:15:55.776Z,20.20
2022-08-26T06:19:58.672Z,28.65
2022-08-26T06:24:26.991Z,24.42
2022-08-26T06:28:29.896Z,23.73
2022-08-26T06:32:32.204Z,26.05
2022-08-26T06:36:35.182Z,31.90
2022-08-26T06:40:48.551Z,26.90
2022-08-26T06:44:50.622Z,28.93
2022-08-26T06:48:54.796Z,26.93
2022-08-26T06:52:57.627Z,26.83
2022-08-26T06:57:01.350Z,24.33
2022-08-26T07:01:11.380Z,26.40
2022-08-26T07:05:15.390Z,22.80
2022-08-26T07:09:18.180Z,22.53
2022-08-26T07:13:29.907Z,26.20
2022-08-26T07:17:33.327Z,27.53
2022-08-26T07:21:37.266Z,25.00
2022-08-26T07:25:41.714Z,23.10
2022-08-26T07:29:44.994Z,22.43
2022-08-26T07:33:48.396Z,19.77
2022-08-26T07:37:55.064Z,20.67
2022-08-26T07:42:07.716Z,26.25
2022-08-26T07:46:15.877Z,20.88
2022-08-26T07:50:19.441Z,24.45
2022-08-26T07:54:26.860Z,23.75
2022-08-26T07:58:29.673Z,22.75
2022-08-26T08:02:32.243Z,23.00
2022-08-26T08:06:37.596Z,21.13
2022-08-26T08:10:40.194Z,26.15
2022-08-26T08:14:45.388Z,20.45
2022-08-26T08:18:48.002Z,18.43
2022-08-26T08:22:52.053Z,14.87
2022-08-26T08:26:56.091Z,15.00
2022-08-26T08:30:58.544Z,18.05
2022-08-26T08:35:02.540Z,13.97
2022-08-26T08:39:14.071Z,13.50
2022-08-26T08:43:37.729Z,14.05
2022-08-26T08:47:48.642Z,12.70
2022-08-26T08:51:59.671Z,17.58
2022-08-26T08:56:11.099Z,18.83
2022-08-26T09:00:19.075Z,15.77
2022-08-26T09:04:36.579Z,19.42
2022-08-26T09:08:41.146Z,14.75
2022-08-26T09:12:43.961Z,17.00
2022-08-26T09:16:56.833Z,14.07
2022-08-26T09:21:06.537Z,12.95
2022-08-26T09:25:11.565Z,10.90
2022-08-26T09:33:32.046Z,14.80
2022-08-26T09:37:40.496Z,15.85
2022-08-26T09:41:43.702Z,10.57
2022-08-26T09:45:50.184Z,15.05
2022-08-26T09:50:28.805Z,13.13
2022-08-26T09:54:32.474Z,17.15
2022-08-26T09:58:39.229Z,13.38
2022-08-26T10:02:47.738Z,11.13
2022-08-26T10:07:09.940Z,9.95
2022-08-26T10:11:24.595Z,11.30
2022-08-26T10:15:28.304Z,13.02
2022-08-26T10:19:53.573Z,11.32
2022-08-26T10:24:02.308Z,12.52
2022-08-26T10:28:33.315Z,8.88
2022-08-26T10:33:03.711Z,12.20
2022-08-26T10:37:18.216Z,12.35
2022-08-26T10:41:24.225Z,13.15
2022-08-26T10:45:29.803Z,11.18
2022-08-26T10:49:31.824Z,8.82
2022-08-26T10:53:42.635Z,11.95
2022-08-26T10:57:53.095Z,11.15
2022-08-26T11:02:28.505Z,13.55
2022-08-26T11:06:31.504Z,15.80
2022-08-26T11:10:42.914Z,7.95
2022-08-26T11:14:58.507Z,10.48
2022-08-26T11:19:01.378Z,10.63
2022-08-26T11:23:12.976Z,7.45
2022-08-26T11:27:36.414Z,10.02
2022-08-26T11:31:38.896Z,7.63
2022-08-26T11:35:43.897Z,11.63
2022-08-26T11:39:55.140Z,9.85
2022-08-26T11:43:59.915Z,8.98
2022-08-26T11:48:20.061Z,9.52
2022-08-26T11:52:23.275Z,10.27
2022-08-26T11:56:33.424Z,8.88
2022-08-26T12:00:45.756Z,9.20
2022-08-26T12:04:51.078Z,8.80
2022-08-26T12:09:00.128Z,17.75
2022-08-26T12:13:04.216Z,8.70
2022-08-26T12:17:13.764Z,10.27
2022-08-26T12:21:24.274Z,6.80
2022-08-26T12:25:28.217Z,9.60
2022-08-26T12:29:38.503Z,7.45
2022-08-26T12:33:42.084Z,11.10
2022-08-26T12:37:52.023Z,10.57
2022-08-26T12:42:00.039Z,10.73
2022-08-26T12:46:06.641Z,9.75
2022-08-26T12:50:20.255Z,7.15
2022-08-26T12:54:42.475Z,8.38
2022-08-26T12:58:44.767Z,7.18
2022-08-26T13:02:47.159Z,11.57
2022-08-26T13:06:49.555Z,8.68
2022-08-26T13:11:03.414Z,9.68
2022-08-26T13:15:06.964Z,7.30
2022-08-26T13:19:29.355Z,10.15
2022-08-26T13:23:41.930Z,7.63
2022-08-26T13:27:45.002Z,9.90
2022-08-26T13:31:47.721Z,9.80
2022-08-26T13:35:50.207Z,13.10
2022-08-26T13:39:56.029Z,7.00
2022-08-26T13:43:59.824Z,9.77
2022-08-26T13:48:02.280Z,8.57
2022-08-26T13:52:04.766Z,8.70
2022-08-26T13:56:10.821Z,6.93
2022-08-26T14:00:14.243Z,5.93
2022-08-26T14:04:16.389Z,5.25
2022-08-26T14:08:26.053Z,5.70
2022-08-26T14:12:28.769Z,7.53
2022-08-26T14:16:37.975Z,10.70
2022-08-26T14:21:00.463Z,7.80
2022-08-26T14:25:02.420Z,4.57
2022-08-26T14:29:06.128Z,5.40
2022-08-26T14:33:12.027Z,5.00
2022-08-26T14:37:15.355Z,5.22
2022-08-26T14:41:19.093Z,5.75
2022-08-26T14:45:24.081Z,4.28
2022-08-26T14:49:27.605Z,4.30
2022-08-26T14:53:47.925Z,4.22
2022-08-26T14:57:49.851Z,5.80
2022-08-26T15:01:52.772Z,5.25
2022-08-26T15:05:54.974Z,3.92
2022-08-26T15:09:57.108Z,6.25
2022-08-26T15:14:00.021Z,6.30
2022-08-26T15:18:03.701Z,4.80
2022-08-26T15:22:06.074Z,5.80
2022-08-26T15:26:10.524Z,5.07
2022-08-26T15:30:13.662Z,5.35
2022-08-26T15:34:18.419Z,10.07
2022-08-26T15:38:20.714Z,7.45
2022-08-26T15:42:23.205Z,6.03
2022-08-26T15:46:25.610Z,4.53
2022-08-26T15:50:29.054Z,6.13
2022-08-26T15:54:32.697Z,4.10
2022-08-26T15:58:35.126Z,6.15
2022-08-26T16:02:38.551Z,5.25
2022-08-26T16:06:41.598Z,5.82
2022-08-26T16:10:49.965Z,4.93
2022-08-26T16:14:54.068Z,6.03
2022-08-26T16:18:56.341Z,6.45
2022-08-26T16:22:59.994Z,8.07
2022-08-26T16:27:02.552Z,8.05
2022-08-26T16:31:04.893Z,6.38
2022-08-26T16:35:07.976Z,6.20
2022-08-26T16:39:10.342Z,6.53
2022-08-26T16:43:15.226Z,5.18
2022-08-26T16:47:21.735Z,6.15
2022-08-26T16:51:27.020Z,4.80
2022-08-26T16:55:29.045Z,6.20
2022-08-26T16:59:33.092Z,6.22
2022-08-26T17:03:35.218Z,6.38
2022-08-26T17:07:38.368Z,5.37
2022-08-26T17:11:40.270Z,7.50
2022-08-26T17:15:54.242Z,6.30
2022-08-26T17:20:06.118Z,4.90
2022-08-26T17:24:08.504Z,6.23
2022-08-26T17:28:13.518Z,6.10
2022-08-26T17:32:16.084Z,9.53
2022-08-26T17:36:19.491Z,6.53
2022-08-26T17:40:24.618Z,6.70
2022-08-26T17:44:26.746Z,5.20
2022-08-26T17:48:30.012Z,6.73
2022-08-26T17:52:32.370Z,7.37
2022-08-26T17:56:34.338Z,6.83
2022-08-26T18:00:37.790Z,7.67
2022-08-26T18:04:39.961Z,7.73
2022-08-26T18:08:45.238Z,6.43
2022-08-26T18:12:49.475Z,6.63
2022-08-26T18:17:03.108Z,5.47
2022-08-26T18:21:22.668Z,7.17
2022-08-26T18:25:28.627Z,6.90
2022-08-26T18:29:30.950Z,6.80
2022-08-26T18:33:36.862Z,6.57
2022-08-26T18:37:41.903Z,7.47
2022-08-26T18:41:47.209Z,5.90
2022-08-26T18:46:03.723Z,6.87
2022-08-26T18:50:07.684Z,8.47
2022-08-26T18:54:10.767Z,5.13
2022-08-26T18:58:13.620Z,7.47
2022-08-26T19:02:20.037Z,8.00
2022-08-26T19:06:26.671Z,8.10
2022-08-26T19:10:29.554Z,7.80
2022-08-26T19:14:31.771Z,7.10
2022-08-26T19:18:33.922Z,11.13
2022-08-26T19:22:37.397Z,16.97
2022-08-26T19:26:39.612Z,13.13
2022-08-26T19:30:45.021Z,10.13
2022-08-26T19:34:47.383Z,8.67
2022-08-26T19:38:50.086Z,9.30
2022-08-26T19:42:52.225Z,8.30
2022-08-26T19:46:54.563Z,8.57
2022-08-26T19:50:56.647Z,8.77
2022-08-26T19:55:00.785Z,8.53
2022-08-26T19:59:02.925Z,9.03
2022-08-26T20:03:05.056Z,7.47
2022-08-26T20:07:07.812Z,8.87
2022-08-26T20:11:14.693Z,6.90
2022-08-26T20:15:17.317Z,7.80
2022-08-26T20:19:38.015Z,9.63
2022-08-26T20:23:40.789Z,7.23
2022-08-26T20:27:43.462Z,10.67
2022-08-26T20:31:47.482Z,11.50
2022-08-26T20:35:49.945Z,8.20
2022-08-26T20:39:54.592Z,8.90
2022-08-26T20:43:57.737Z,8.33
2022-08-26T20:48:00.248Z,16.93
2022-08-26T20:52:02.785Z,15.03
2022-08-26T20:56:08.909Z,19.07
2022-08-26T21:00:13.477Z,12.10
2022-08-26T21:04:20.892Z,14.83
2022-08-26T21:08:23.294Z,11.37
2022-08-26T21:12:27.991Z,11.30
2022-08-26T21:16:31.169Z,11.17
2022-08-26T21:20:33.770Z,8.50
2022-08-26T21:24:36.264Z,8.60
2022-08-26T21:28:40.831Z,9.23
2022-08-26T21:32:43.372Z,11.43
2022-08-26T21:36:46.943Z,10.50
2022-08-26T21:41:04.346Z,10.40
2022-08-26T21:45:07.279Z,8.93
2022-08-26T21:49:13.384Z,7.97
2022-08-26T21:53:15.730Z,9.43
2022-08-26T21:57:18.544Z,7.60
2022-08-26T22:01:23.268Z,7.07
2022-08-26T22:05:25.561Z,11.77
2022-08-26T22:09:30.941Z,9.67
2022-08-26T22:13:36.399Z,9.87
2022-08-26T22:17:39.227Z,9.27
2022-08-26T22:21:41.407Z,12.70
2022-08-26T22:25:43.603Z,11.00
2022-08-26T22:29:48.055Z,11.93
2022-08-26T22:33:50.133Z,15.47
2022-08-26T22:37:52.280Z,13.70
2022-08-26T22:41:57.418Z,11.63
2022-08-26T22:45:59.796Z,14.37
2022-08-26T22:50:02.363Z,12.20
2022-08-26T22:54:05.786Z,12.30
2022-08-26T22:58:08.053Z,11.90
2022-08-26T23:02:11.103Z,10.90
2022-08-26T23:06:14.875Z,9.57
2022-08-26T23:10:17.469Z,8.57
2022-08-26T23:14:19.700Z,8.57
2022-08-26T23:18:21.996Z,8.00
2022-08-26T23:22:25.165Z,8.17
2022-08-26T23:26:27.364Z,7.80
2022-08-26T23:30:31.881Z,9.77
2022-08-26T23:34:52.703Z,9.23
2022-08-26T23:38:55.391Z,12.77
2022-08-26T23:43:03.611Z,10.90
2022-08-26T23:47:06.526Z,8.40
2022-08-26T23:51:28.678Z,7.77
2022-08-26T23:55:34.762Z,8.20
2022-08-26T23:59:38.491Z,11.60
